createdAt,value
2018-09-19T00:02:17.109Z,17.38
2018-09-19T00:04:45.747Z,17.36
2018-09-19T00:07:14.071Z,17.35
2018-09-19T00:09:42.422Z,17.34
2018-09-19T00:12:10.855Z,17.36
2018-09-19T00:14:39.175Z,17.37
2018-09-19T00:17:07.581Z,17.35
2018-09-19T00:19:36.028Z,17.31
2018-09-19T00:22:04.363Z,17.28
2018-09-19T00:24:32.699Z,17.24
2018-09-19T00:27:01.083Z,17.24
2018-09-19T00:29:29.427Z,17.25
2018-09-19T00:31:57.855Z,17.25
2018-09-19T00:34:26.275Z,17.23
2018-09-19T00:36:54.721Z,17.22
2018-09-19T00:39:23.046Z,17.21
2018-09-19T00:41:51.447Z,17.21
2018-09-19T00:44:19.910Z,17.20
2018-09-19T00:46:48.249Z,17.18
2018-09-19T00:49:16.650Z,17.20
2018-09-19T00:51:45.094Z,17.21
2018-09-19T00:54:13.632Z,17.21
2018-09-19T00:56:42.098Z,17.20
2018-09-19T00:59:10.506Z,17.16
2018-09-19T01:01:38.904Z,17.15
2018-09-19T01:04:07.262Z,17.16
2018-09-19T01:06:35.591Z,17.15
2018-09-19T01:09:04.924Z,17.13
2018-09-19T01:11:33.419Z,17.12
2018-09-19T01:14:01.750Z,17.11
2018-09-19T01:16:30.084Z,17.11
2018-09-19T01:18:58.470Z,17.10
2018-09-19T01:21:27.027Z,17.10
2018-09-19T01:23:55.451Z,17.11
2018-09-19T01:26:23.859Z,17.11
2018-09-19T01:28:52.212Z,17.10
2018-09-19T01:31:20.540Z,17.08
2018-09-19T01:33:48.985Z,17.10
2018-09-19T01:36:17.328Z,17.10
2018-09-19T01:38:45.672Z,17.12
2018-09-19T01:41:14.047Z,17.11
2018-09-19T01:43:42.476Z,17.12
2018-09-19T01:46:10.925Z,17.12
2018-09-19T01:48:39.309Z,17.11
2018-09-19T01:51:08.295Z,17.11
2018-09-19T01:53:36.693Z,17.13
2018-09-19T01:56:05.292Z,17.15
2018-09-19T01:58:33.623Z,17.17
2018-09-19T02:01:01.992Z,17.20
2018-09-19T02:03:30.349Z,17.20
2018-09-19T02:05:58.679Z,17.24
2018-09-19T02:08:27.072Z,17.28
2018-09-19T02:10:55.451Z,17.32
2018-09-19T02:13:23.828Z,17.36
2018-09-19T02:15:52.276Z,17.39
2018-09-19T02:18:20.588Z,17.37
2018-09-19T02:20:48.932Z,17.39
2018-09-19T02:23:17.335Z,17.40
2018-09-19T02:25:45.745Z,17.40
2018-09-19T02:28:14.144Z,17.37
2018-09-19T02:30:42.579Z,17.39
2018-09-19T02:33:11.182Z,17.39
2018-09-19T02:35:39.535Z,17.42
2018-09-19T02:38:07.918Z,17.41
2018-09-19T02:40:36.332Z,17.38
2018-09-19T02:43:05.959Z,17.34
2018-09-19T02:45:34.304Z,17.30
2018-09-19T02:48:02.697Z,17.28
2018-09-19T02:50:31.051Z,17.28
2018-09-19T02:52:59.415Z,17.28
2018-09-19T02:55:27.796Z,17.23
2018-09-19T02:57:56.174Z,17.18
2018-09-19T03:00:24.536Z,17.11
2018-09-19T03:02:53.007Z,17.09
2018-09-19T03:05:21.414Z,17.06
2018-09-19T03:07:49.791Z,17.05
2018-09-19T03:10:18.239Z,17.06
2018-09-19T03:12:46.669Z,17.08
2018-09-19T03:15:14.999Z,17.12
2018-09-19T03:17:43.704Z,17.18
2018-09-19T03:20:11.815Z,17.20
2018-09-19T03:22:40.157Z,17.22
2018-09-19T03:25:08.772Z,17.22
2018-09-19T03:27:37.291Z,17.27
2018-09-19T03:30:06.241Z,17.29
2018-09-19T03:32:34.809Z,17.23
2018-09-19T03:35:03.188Z,17.21
2018-09-19T03:37:31.517Z,17.21
2018-09-19T03:39:59.903Z,17.19
2018-09-19T03:42:28.225Z,17.21
2018-09-19T03:44:56.578Z,17.21
2018-09-19T03:47:24.998Z,17.19
2018-09-19T03:49:53.330Z,17.17
2018-09-19T03:52:21.718Z,17.17
2018-09-19T03:54:50.160Z,17.17
2018-09-19T03:57:18.493Z,17.17
2018-09-19T03:59:47.332Z,17.18
2018-09-19T04:02:15.789Z,17.17
2018-09-19T04:04:44.240Z,17.16
2018-09-19T04:07:12.555Z,17.15
2018-09-19T04:09:41.051Z,17.11
2018-09-19T04:12:09.476Z,17.09
2018-09-19T04:14:37.853Z,17.05
2018-09-19T04:17:06.243Z,17.01
2018-09-19T04:19:34.625Z,16.99
2018-09-19T04:22:03.152Z,16.96
2018-09-19T04:24:31.669Z,16.94
2018-09-19T04:27:00.083Z,16.91
2018-09-19T04:29:28.384Z,16.86
2018-09-19T04:31:57.018Z,16.80
2018-09-19T04:34:25.346Z,16.74
2018-09-19T04:36:53.762Z,16.71
2018-09-19T04:39:22.193Z,16.65
2018-09-19T04:41:50.529Z,16.59
2018-09-19T04:44:18.899Z,16.50
2018-09-19T04:46:47.315Z,16.45
2018-09-19T04:49:15.740Z,16.42
2018-09-19T04:51:44.069Z,16.42
2018-09-19T04:54:12.622Z,16.38
2018-09-19T04:56:41.104Z,16.31
2018-09-19T04:59:09.454Z,16.32
2018-09-19T05:01:37.811Z,16.34
2018-09-19T05:04:06.255Z,16.35
2018-09-19T05:06:34.724Z,16.37
2018-09-19T05:09:03.438Z,16.41
2018-09-19T05:11:31.803Z,16.45
2018-09-19T05:14:00.152Z,16.52
2018-09-19T05:16:28.632Z,16.57
2018-09-19T05:18:57.028Z,16.59
2018-09-19T05:21:25.362Z,16.60
2018-09-19T05:23:53.818Z,16.64
2018-09-19T05:26:22.250Z,16.65
2018-09-19T05:28:50.654Z,16.67
2018-09-19T05:31:19.032Z,16.69
2018-09-19T05:33:47.504Z,16.73
2018-09-19T05:36:15.871Z,16.76
2018-09-19T05:38:44.268Z,16.77
2018-09-19T05:41:12.913Z,16.81
2018-09-19T05:43:41.430Z,16.83
2018-09-19T05:46:09.968Z,16.83
2018-09-19T05:48:38.311Z,16.85
2018-09-19T05:51:06.687Z,16.87
2018-09-19T05:53:35.441Z,16.93
2018-09-19T05:56:03.767Z,16.98
2018-09-19T05:58:32.320Z,17.02
2018-09-19T06:01:00.847Z,17.05
2018-09-19T06:03:29.365Z,17.11
2018-09-19T06:05:57.699Z,17.12
2018-09-19T06:08:26.160Z,17.11
2018-09-19T06:10:54.519Z,17.08
2018-09-19T06:13:22.844Z,17.11
2018-09-19T06:15:51.452Z,17.17
2018-09-19T06:18:19.801Z,17.23
2018-09-19T06:20:48.219Z,17.26
2018-09-19T06:23:16.596Z,17.28
2018-09-19T06:25:45.039Z,17.30
2018-09-19T06:28:13.632Z,17.34
2018-09-19T06:30:42.708Z,17.38
2018-09-19T06:33:11.275Z,17.41
2018-09-19T06:35:39.609Z,17.43
2018-09-19T06:38:08.193Z,17.44
2018-09-19T06:40:36.579Z,17.47
2018-09-19T06:43:04.919Z,17.49
2018-09-19T06:45:33.351Z,17.54
2018-09-19T06:48:01.709Z,17.60
2018-09-19T06:50:30.120Z,17.66
2018-09-19T06:52:59.291Z,17.71
2018-09-19T06:55:27.840Z,17.75
2018-09-19T06:57:56.758Z,17.82
2018-09-19T07:00:25.448Z,17.87
2018-09-19T07:02:53.854Z,17.89
2018-09-19T07:05:22.176Z,17.93
2018-09-19T07:07:50.530Z,18.00
2018-09-19T07:10:18.860Z,18.06
2018-09-19T07:12:47.188Z,18.12
2018-09-19T07:15:15.669Z,18.20
2018-09-19T07:17:44.090Z,18.25
2018-09-19T07:20:12.484Z,18.30
2018-09-19T07:22:41.053Z,18.36
2018-09-19T07:25:09.415Z,18.40
2018-09-19T07:27:37.827Z,18.48
2018-09-19T07:30:06.968Z,18.58
2018-09-19T07:32:35.556Z,18.70
2018-09-19T07:35:03.991Z,18.81
2018-09-19T07:37:32.356Z,18.91
2018-09-19T07:40:00.739Z,19.00
2018-09-19T07:42:29.115Z,19.00
2018-09-19T07:44:57.503Z,19.03
2018-09-19T07:47:25.872Z,19.04
2018-09-19T07:49:54.212Z,18.99
2018-09-19T07:52:22.639Z,18.98
2018-09-19T07:54:51.015Z,18.96
2018-09-19T07:57:19.387Z,18.91
2018-09-19T07:59:47.763Z,18.87
2018-09-19T08:02:16.269Z,18.84
2018-09-19T08:04:44.592Z,18.87
2018-09-19T08:07:13.044Z,18.92
2018-09-19T08:09:41.579Z,19.03
2018-09-19T08:12:09.975Z,19.15
2018-09-19T08:14:38.539Z,19.30
2018-09-19T08:17:07.490Z,19.41
2018-09-19T08:19:35.923Z,19.50
2018-09-19T08:22:04.588Z,19.58
2018-09-19T08:24:32.920Z,19.63
2018-09-19T08:27:01.348Z,19.71
2018-09-19T08:29:30.109Z,19.79
2018-09-19T08:31:58.515Z,19.85
2018-09-19T08:34:26.861Z,19.95
2018-09-19T08:36:55.342Z,20.03
2018-09-19T08:39:23.866Z,20.16
2018-09-19T08:41:52.243Z,20.23
2018-09-19T08:44:20.603Z,20.31
2018-09-19T08:46:48.943Z,20.40
2018-09-19T08:49:17.280Z,20.50
2018-09-19T08:51:45.684Z,20.60
2018-09-19T08:54:14.046Z,20.65
2018-09-19T08:56:42.380Z,20.71
2018-09-19T08:59:17.282Z,20.78
2018-09-19T09:01:45.637Z,20.85
2018-09-19T09:04:14.040Z,20.94
2018-09-19T09:06:42.504Z,21.04
2018-09-19T09:09:10.857Z,21.12
2018-09-19T09:11:39.227Z,21.19
2018-09-19T09:14:08.073Z,21.27
2018-09-19T09:16:36.424Z,21.32
2018-09-19T09:19:04.775Z,21.41
2018-09-19T09:21:33.234Z,21.43
2018-09-19T09:24:01.556Z,21.44
2018-09-19T09:26:30.042Z,21.49
2018-09-19T09:28:58.435Z,21.56
2018-09-19T09:31:26.867Z,21.70
2018-09-19T09:33:55.257Z,21.82
2018-09-19T09:36:23.627Z,21.96
2018-09-19T09:38:52.012Z,22.04
2018-09-19T09:41:20.359Z,22.07
2018-09-19T09:43:49.285Z,22.14
2018-09-19T09:46:17.633Z,22.16
2018-09-19T09:48:46.043Z,22.21
2018-09-19T09:51:14.484Z,22.37
2018-09-19T09:53:42.818Z,22.49
2018-09-19T09:56:11.159Z,22.58
2018-09-19T09:58:39.598Z,22.69
2018-09-19T10:01:08.038Z,22.79
2018-09-19T10:03:36.387Z,22.88
2018-09-19T10:06:05.017Z,22.94
2018-09-19T10:08:33.385Z,22.98
2018-09-19T10:11:01.842Z,23.00
2018-09-19T10:13:30.247Z,23.00
2018-09-19T10:15:58.537Z,23.05
2018-09-19T10:18:26.874Z,23.18
2018-09-19T10:20:55.273Z,23.34
2018-09-19T10:23:23.608Z,23.44
2018-09-19T10:25:52.040Z,23.47
2018-09-19T10:28:20.424Z,23.49
2018-09-19T10:30:49.443Z,23.51
2018-09-19T10:33:17.827Z,23.57
2018-09-19T10:35:46.443Z,23.63
2018-09-19T10:38:14.827Z,23.69
2018-09-19T10:40:43.211Z,23.72
2018-09-19T10:43:11.615Z,23.83
2018-09-19T10:45:39.957Z,23.94
2018-09-19T10:48:08.447Z,24.10
2018-09-19T10:50:36.823Z,24.24
2018-09-19T10:53:05.139Z,24.31
2018-09-19T10:55:33.479Z,24.43
2018-09-19T10:58:01.863Z,24.45
2018-09-19T11:00:30.185Z,24.43
2018-09-19T11:02:58.504Z,24.48
2018-09-19T11:05:26.920Z,24.60
2018-09-19T11:07:55.369Z,24.74
2018-09-19T11:10:23.696Z,24.83
2018-09-19T11:12:52.166Z,24.94
2018-09-19T11:15:20.500Z,25.02
2018-09-19T11:17:48.820Z,25.13
2018-09-19T11:20:17.272Z,25.23
2018-09-19T11:22:45.584Z,25.26
2018-09-19T11:25:13.950Z,25.30
2018-09-19T11:27:42.384Z,25.38
2018-09-19T11:30:10.836Z,25.43
2018-09-19T11:32:39.180Z,25.35
2018-09-19T11:35:07.632Z,25.40
2018-09-19T11:37:36.017Z,25.51
2018-09-19T11:40:04.384Z,25.60
2018-09-19T11:42:32.870Z,25.65
2018-09-19T11:45:01.213Z,25.70
2018-09-19T11:47:29.547Z,25.82
2018-09-19T11:49:57.928Z,25.94
2018-09-19T11:52:26.262Z,26.06
2018-09-19T11:54:54.596Z,26.17
2018-09-19T11:57:22.984Z,26.26
2018-09-19T11:59:51.332Z,26.28
2018-09-19T12:02:19.658Z,26.13
2018-09-19T12:04:48.126Z,26.15
2018-09-19T12:07:16.696Z,26.21
2018-09-19T12:09:45.005Z,26.34
2018-09-19T12:12:13.368Z,26.50
2018-09-19T12:14:41.699Z,26.60
2018-09-19T12:17:10.032Z,26.51
2018-09-19T12:19:38.398Z,26.56
2018-09-19T12:22:06.756Z,26.64
2018-09-19T12:24:35.108Z,26.73
2018-09-19T12:27:03.603Z,26.81
2018-09-19T12:29:31.967Z,26.93
2018-09-19T12:32:00.307Z,27.00
2018-09-19T12:34:28.708Z,27.00
2018-09-19T12:36:57.056Z,27.04
2018-09-19T12:39:25.438Z,27.20
2018-09-19T12:41:53.791Z,27.29
2018-09-19T12:44:22.132Z,27.43
2018-09-19T12:46:50.463Z,27.58
2018-09-19T12:49:18.901Z,27.64
2018-09-19T12:51:47.252Z,27.71
2018-09-19T12:54:15.651Z,27.74
2018-09-19T12:56:44.603Z,27.76
2018-09-19T12:59:13.036Z,27.83
2018-09-19T13:01:41.403Z,27.89
2018-09-19T13:04:09.785Z,27.89
2018-09-19T13:06:38.170Z,27.97
2018-09-19T13:09:09.433Z,28.08
2018-09-19T13:11:38.186Z,28.21
2018-09-19T13:14:06.580Z,28.32
2018-09-19T13:16:34.964Z,28.38
2018-09-19T13:19:03.482Z,28.32
2018-09-19T13:21:31.813Z,28.31
2018-09-19T13:24:00.174Z,28.34
2018-09-19T13:26:28.614Z,28.30
2018-09-19T13:28:56.935Z,28.28
2018-09-19T13:31:25.277Z,28.38
2018-09-19T13:33:53.667Z,28.41
2018-09-19T13:36:21.990Z,28.50
2018-09-19T13:38:50.339Z,28.51
2018-09-19T13:41:18.814Z,28.48
2018-09-19T13:43:47.157Z,28.58
2018-09-19T13:46:15.541Z,28.66
2018-09-19T13:48:46.550Z,28.69
2018-09-19T13:51:19.826Z,28.63
2018-09-19T13:53:48.269Z,28.63
2018-09-19T13:56:16.632Z,28.68
2018-09-19T13:58:45.036Z,28.74
2018-09-19T14:01:13.444Z,28.80
2018-09-19T14:03:41.830Z,28.82
2018-09-19T14:06:10.194Z,28.80
2018-09-19T14:08:38.720Z,28.74
2018-09-19T14:11:07.176Z,28.69
2018-09-19T14:13:35.521Z,28.70
2018-09-19T14:16:03.988Z,28.68
2018-09-19T14:18:32.405Z,28.65
2018-09-19T14:21:00.893Z,28.70
2018-09-19T14:23:29.278Z,28.70
2018-09-19T14:25:57.714Z,28.77
2018-09-19T14:28:26.124Z,28.70
2018-09-19T14:30:55.111Z,28.69
2018-09-19T14:33:23.597Z,28.70
2018-09-19T14:35:52.167Z,28.70
2018-09-19T14:38:20.419Z,28.68
2018-09-19T14:40:48.777Z,28.66
2018-09-19T14:43:17.208Z,28.63
2018-09-19T14:45:45.867Z,28.57
2018-09-19T14:48:14.221Z,28.56
2018-09-19T14:50:42.547Z,28.53
2018-09-19T14:53:10.931Z,28.50
2018-09-19T14:55:39.323Z,28.46
2018-09-19T14:58:07.651Z,28.50
2018-09-19T15:00:36.610Z,28.49
2018-09-19T15:03:05.248Z,28.47
2018-09-19T15:05:33.752Z,28.48
2018-09-19T15:08:02.155Z,28.45
2018-09-19T15:10:30.580Z,28.44
2018-09-19T15:12:58.912Z,28.36
2018-09-19T15:15:27.432Z,28.25
2018-09-19T15:17:55.805Z,28.34
2018-09-19T15:20:24.200Z,28.35
2018-09-19T15:22:52.876Z,28.27
2018-09-19T15:25:22.201Z,28.21
2018-09-19T15:27:50.641Z,28.18
2018-09-19T15:30:19.256Z,28.15
2018-09-19T15:32:47.689Z,28.11
2018-09-19T15:35:16.140Z,28.08
2018-09-19T15:37:44.520Z,28.01
2018-09-19T15:40:12.919Z,28.01
2018-09-19T15:42:41.308Z,27.98
2018-09-19T15:45:09.749Z,27.94
2018-09-19T15:47:38.279Z,27.88
2018-09-19T15:50:06.752Z,27.81
2018-09-19T15:52:35.183Z,27.69
2018-09-19T15:55:03.807Z,27.63
2018-09-19T15:57:32.473Z,27.58
2018-09-19T16:00:00.972Z,27.52
2018-09-19T16:02:29.521Z,27.43
2018-09-19T16:04:57.887Z,27.35
2018-09-19T16:07:26.359Z,27.30
2018-09-19T16:09:54.740Z,27.25
2018-09-19T16:12:23.184Z,27.21
2018-09-19T16:14:51.600Z,27.14
2018-09-19T16:17:20.005Z,27.08
2018-09-19T16:19:48.356Z,27.00
2018-09-19T16:22:16.783Z,26.93
2018-09-19T16:24:45.157Z,26.89
2018-09-19T16:27:13.605Z,26.81
2018-09-19T16:29:42.836Z,26.78
2018-09-19T16:32:11.175Z,26.74
2018-09-19T16:34:39.520Z,26.66
2018-09-19T16:37:07.960Z,26.61
2018-09-19T16:39:36.312Z,26.56
2018-09-19T16:42:04.855Z,26.47
2018-09-19T16:44:33.273Z,26.40
2018-09-19T16:47:01.660Z,26.31
2018-09-19T16:49:30.008Z,26.25
2018-09-19T16:51:58.373Z,26.18
2018-09-19T16:54:26.728Z,26.16
2018-09-19T16:56:55.088Z,26.11
2018-09-19T16:59:23.605Z,26.05
2018-09-19T17:01:52.023Z,25.98
2018-09-19T17:04:20.455Z,25.93
2018-09-19T17:06:49.274Z,25.86
2018-09-19T17:09:17.671Z,25.76
2018-09-19T17:11:46.228Z,25.65
2018-09-19T17:14:14.652Z,25.53
2018-09-19T17:16:42.992Z,25.45
2018-09-19T17:19:11.387Z,25.32
2018-09-19T17:21:39.864Z,25.24
2018-09-19T17:24:08.196Z,25.16
2018-09-19T17:26:36.540Z,25.01
2018-09-19T17:29:05.097Z,24.83
2018-09-19T17:31:33.515Z,24.70
2018-09-19T17:34:01.849Z,24.59
2018-09-19T17:36:30.828Z,24.54
2018-09-19T17:38:59.256Z,24.42
2018-09-19T17:41:27.690Z,24.31
2018-09-19T17:43:56.135Z,24.26
2018-09-19T17:46:24.603Z,24.19
2018-09-19T17:48:53.604Z,24.07
2018-09-19T17:51:22.108Z,24.00
2018-09-19T17:53:50.544Z,23.85
2018-09-19T17:56:19.044Z,23.87
2018-09-19T17:58:47.688Z,23.83
2018-09-19T18:01:16.105Z,23.75
2018-09-19T18:03:44.468Z,23.71
2018-09-19T18:06:13.094Z,23.68
2018-09-19T18:08:41.515Z,23.66
2018-09-19T18:11:09.884Z,23.61
2018-09-19T18:13:38.422Z,23.58
2018-09-19T18:16:06.890Z,23.53
2018-09-19T18:18:35.888Z,23.50
2018-09-19T18:21:04.380Z,23.46
2018-09-19T18:23:32.848Z,23.40
2018-09-19T18:26:01.277Z,23.35
2018-09-19T18:28:29.800Z,23.30
2018-09-19T18:30:58.328Z,23.27
2018-09-19T18:33:26.737Z,23.21
2018-09-19T18:35:55.256Z,23.16
2018-09-19T18:38:23.696Z,23.13
2018-09-19T18:40:52.213Z,23.06
2018-09-19T18:43:20.599Z,23.00
2018-09-19T18:45:49.123Z,22.94
2018-09-19T18:48:17.516Z,22.90
2018-09-19T18:50:45.984Z,22.83
2018-09-19T18:53:14.357Z,22.75
2018-09-19T18:55:42.736Z,22.67
2018-09-19T18:58:11.244Z,22.58
2018-09-19T19:00:39.676Z,22.58
2018-09-19T19:03:08.064Z,22.54
2018-09-19T19:05:36.508Z,22.47
2018-09-19T19:08:04.978Z,22.37
2018-09-19T19:10:33.320Z,22.25
2018-09-19T19:13:01.851Z,22.20
2018-09-19T19:15:30.211Z,22.14
2018-09-19T19:17:58.558Z,22.14
2018-09-19T19:20:26.956Z,22.19
2018-09-19T19:22:55.272Z,22.23
2018-09-19T19:25:23.700Z,22.26
2018-09-19T19:27:52.176Z,22.25
2018-09-19T19:30:20.720Z,22.25
2018-09-19T19:32:49.028Z,22.23
2018-09-19T19:35:17.441Z,22.19
2018-09-19T19:37:45.886Z,22.14
2018-09-19T19:40:14.147Z,22.11
2018-09-19T19:42:42.506Z,22.04
2018-09-19T19:45:11.851Z,21.98
2018-09-19T19:47:40.752Z,21.92
2018-09-19T19:50:09.315Z,21.92
2018-09-19T19:52:37.871Z,21.88
2018-09-19T19:55:06.253Z,21.82
2018-09-19T19:57:34.875Z,21.77
2018-09-19T20:00:03.265Z,21.70
2018-09-19T20:02:31.647Z,21.69
2018-09-19T20:05:00.216Z,21.66
2018-09-19T20:07:28.583Z,21.63
2018-09-19T20:09:57.035Z,21.62
2018-09-19T20:12:25.439Z,21.60
2018-09-19T20:14:53.889Z,21.60
2018-09-19T20:17:22.229Z,21.62
2018-09-19T20:19:50.625Z,21.57
2018-09-19T20:22:18.943Z,21.53
2018-09-19T20:24:47.343Z,21.50
2018-09-19T20:27:15.743Z,21.35
2018-09-19T20:29:44.061Z,21.28
2018-09-19T20:32:12.481Z,21.20
2018-09-19T20:34:41.073Z,21.07
2018-09-19T20:37:09.529Z,20.92
2018-09-19T20:39:37.982Z,20.88
2018-09-19T20:42:06.438Z,20.88
2018-09-19T20:44:34.775Z,20.88
2018-09-19T20:47:03.269Z,20.91
2018-09-19T20:49:31.763Z,20.93
2018-09-19T20:52:00.147Z,20.90
2018-09-19T20:54:28.564Z,20.87
2018-09-19T20:56:57.027Z,20.83
2018-09-19T20:59:25.407Z,20.83
2018-09-19T21:01:53.831Z,20.85
2018-09-19T21:04:22.297Z,20.89
2018-09-19T21:06:50.691Z,20.88
2018-09-19T21:09:19.075Z,20.88
2018-09-19T21:11:47.479Z,20.88
2018-09-19T21:14:15.787Z,20.82
2018-09-19T21:16:44.409Z,20.71
2018-09-19T21:19:12.767Z,20.58
2018-09-19T21:21:41.213Z,20.53
2018-09-19T21:24:09.639Z,20.49
2018-09-19T21:26:38.063Z,20.45
2018-09-19T21:29:06.443Z,20.42
2018-09-19T21:31:34.899Z,20.44
2018-09-19T21:34:03.455Z,20.44
2018-09-19T21:36:31.796Z,20.44
2018-09-19T21:39:00.117Z,20.46
2018-09-19T21:41:28.513Z,20.48
2018-09-19T21:43:56.891Z,20.45
2018-09-19T21:46:25.308Z,20.39
2018-09-19T21:48:53.761Z,20.32
2018-09-19T21:51:22.080Z,20.24
2018-09-19T21:53:50.405Z,20.17
2018-09-19T21:56:18.834Z,20.13
2018-09-19T21:58:47.260Z,20.13
2018-09-19T22:01:20.020Z,20.15
2018-09-19T22:03:48.340Z,20.16
2018-09-19T22:06:16.688Z,20.17
2018-09-19T22:08:45.096Z,20.15
2018-09-19T22:11:13.548Z,20.10
2018-09-19T22:13:41.880Z,20.06
2018-09-19T22:16:10.260Z,20.02
2018-09-19T22:18:38.884Z,19.95
2018-09-19T22:21:07.220Z,19.85
2018-09-19T22:23:35.719Z,19.76
2018-09-19T22:26:04.138Z,19.67
2018-09-19T22:28:32.577Z,19.63
2018-09-19T22:31:01.038Z,19.57
2018-09-19T22:33:29.459Z,19.53
2018-09-19T22:35:57.859Z,19.52
2018-09-19T22:38:26.272Z,19.48
2018-09-19T22:40:54.589Z,19.53
2018-09-19T22:43:22.922Z,19.60
2018-09-19T22:45:51.290Z,19.68
2018-09-19T22:48:19.616Z,19.72
2018-09-19T22:50:48.443Z,19.76
2018-09-19T22:53:23.568Z,19.80
2018-09-19T22:55:51.897Z,19.81
2018-09-19T22:58:20.320Z,19.79
2018-09-19T23:00:48.723Z,19.72
2018-09-19T23:03:17.180Z,19.70
2018-09-19T23:05:45.663Z,19.67
2018-09-19T23:08:14.244Z,19.67
2018-09-19T23:10:42.578Z,19.67
2018-09-19T23:13:10.999Z,19.69
2018-09-19T23:15:39.569Z,19.70
2018-09-19T23:18:07.953Z,19.72
2018-09-19T23:20:36.373Z,19.73
2018-09-19T23:23:05.003Z,19.73
2018-09-19T23:25:33.664Z,19.71
2018-09-19T23:28:02.074Z,19.68
2018-09-19T23:30:30.439Z,19.68
2018-09-19T23:32:58.843Z,19.65
2018-09-19T23:35:27.180Z,19.61
2018-09-19T23:37:55.735Z,19.56
2018-09-19T23:40:24.064Z,19.56
2018-09-19T23:42:52.498Z,19.53
2018-09-19T23:45:21.140Z,19.51
2018-09-19T23:47:49.533Z,19.48
2018-09-19T23:50:17.913Z,19.46
2018-09-19T23:52:46.318Z,19.43
2018-09-19T23:55:14.824Z,19.42
2018-09-19T23:57:43.261Z,19.39
